Time;durP1;ratioP1;P1;durP2;ratioP2;P2;SDS_P1;SDS_P2;PMS_P1;PMS_P2;Temp;Humidity;BMP_temperature;BMP_pressure;BME280_temperature;BME280_humidity;BME280_pressure;Samples;Min_cycle;Max_cycle;Signal;HPM_P1;HPM_P2
2024/01/05 00:00:44;;;;;;;11.53;4.97;;;9.90;99.90;;;;;;5134423;27;20470;-70
2024/01/05 00:03:13;;;;;;;13.37;4.60;;;9.90;99.90;;;;;;5134962;27;20450;-70
2024/01/05 00:05:39;;;;;;;11.47;4.10;;;9.90;99.90;;;;;;5134763;27;20449;-70
2024/01/05 00:08:06;;;;;;;13.27;4.07;;;9.90;99.90;;;;;;5134695;27;20438;-70
2024/01/05 00:10:33;;;;;;;10.93;4.10;;;9.80;99.90;;;;;;5116707;28;20462;-70
2024/01/05 00:13:00;;;;;;;11.10;4.20;;;9.90;99.90;;;;;;5134548;27;20430;-70
2024/01/05 00:15:27;;;;;;;15.60;3.90;;;9.90;99.90;;;;;;5134683;27;20442;-69
2024/01/05 00:17:54;;;;;;;13.30;4.80;;;9.80;99.90;;;;;;5134666;27;20525;-70
2024/01/05 00:20:22;;;;;;;6.20;3.63;;;9.80;99.90;;;;;;5142241;28;21055;-69
2024/01/05 00:22:48;;;;;;;8.93;4.17;;;9.80;99.90;;;;;;5139938;28;20450;-70
2024/01/05 00:25:16;;;;;;;16.50;4.93;;;9.80;99.90;;;;;;5137380;28;20434;-69
2024/01/05 00:27:43;;;;;;;9.93;4.07;;;9.70;99.90;;;;;;5136989;28;20438;-70
2024/01/05 00:30:11;;;;;;;7.60;4.17;;;9.70;99.90;;;;;;5136127;28;20458;-70
2024/01/05 00:32:38;;;;;;;12.60;4.30;;;9.70;99.90;;;;;;5136344;27;20437;-70
2024/01/05 00:35:05;;;;;;;7.03;3.40;;;9.70;99.90;;;;;;5139719;27;20474;-70
2024/01/05 00:37:33;;;;;;;10.23;4.17;;;9.70;99.90;;;;;;5138988;27;20449;-70
2024/01/05 00:40:00;;;;;;;13.30;3.97;;;9.70;99.90;;;;;;5139006;27;20489;-69
2024/01/05 00:42:27;;;;;;;13.97;4.80;;;9.60;99.90;;;;;;5138972;27;20449;-70
2024/01/05 00:44:54;;;;;;;9.17;4.23;;;9.60;99.90;;;;;;5139275;27;20448;-70
2024/01/05 00:47:20;;;;;;;11.07;3.93;;;9.60;99.90;;;;;;5120628;27;20444;-70
2024/01/05 00:49:47;;;;;;;10.20;4.37;;;9.60;99.90;;;;;;5138702;27;20450;-70
2024/01/05 00:52:14;;;;;;;8.47;4.37;;;9.50;99.90;;;;;;5138531;27;20449;-69
2024/01/05 00:54:42;;;;;;;12.77;4.60;;;9.50;99.90;;;;;;5138951;27;20437;-70
2024/01/05 00:57:09;;;;;;;7.90;4.13;;;9.50;99.90;;;;;;5138269;27;20457;-70
2024/01/05 00:59:35;;;;;;;10.80;4.07;;;9.50;99.90;;;;;;5136968;27;20531;-69
2024/01/05 01:02:02;;;;;;;13.70;4.47;;;9.50;99.90;;;;;;5138219;27;20486;-70
2024/01/05 01:04:29;;;;;;;11.50;3.80;;;9.50;99.90;;;;;;5138207;27;20441;-69
2024/01/05 01:06:56;;;;;;;11.73;3.83;;;9.40;99.90;;;;;;5139161;27;20784;-70
2024/01/05 01:09:22;;;;;;;8.27;2.07;;;9.40;99.90;;;;;;5138049;27;20460;-69
2024/01/05 01:11:52;;;;;;;12.97;2.43;;;9.30;99.90;;;;;;5119390;27;20478;-70
2024/01/05 01:14:18;;;;;;;7.43;2.43;;;9.30;99.90;;;;;;5138135;27;20445;-70
2024/01/05 01:16:45;;;;;;;9.90;2.40;;;9.30;99.90;;;;;;5137879;27;20450;-70
2024/01/05 01:19:12;;;;;;;7.27;2.13;;;9.20;99.90;;;;;;5137903;27;20477;-69
2024/01/05 01:21:39;;;;;;;8.37;2.20;;;9.20;99.90;;;;;;5137778;27;20446;-70
2024/01/05 01:24:06;;;;;;;14.60;2.50;;;9.30;99.90;;;;;;5138101;27;20442;-69
2024/01/05 01:26:33;;;;;;;8.87;3.23;;;9.20;99.90;;;;;;5137836;27;20441;-70
2024/01/05 01:29:01;;;;;;;4.67;2.33;;;9.20;99.90;;;;;;5138135;27;20453;-70
2024/01/05 01:31:29;;;;;;;7.20;1.90;;;9.20;99.90;;;;;;5138107;27;20437;-70
2024/01/05 01:33:55;;;;;;;7.37;2.03;;;9.10;99.90;;;;;;5137969;27;20469;-70
2024/01/05 01:36:21;;;;;;;16.60;2.57;;;9.10;99.90;;;;;;5137972;27;20444;-70
2024/01/05 01:38:48;;;;;;;3.73;1.70;;;9.10;99.90;;;;;;5137705;27;20442;-70
2024/01/05 01:41:15;;;;;;;7.93;2.40;;;9.10;99.90;;;;;;5137656;27;20239;-70
2024/01/05 01:43:46;;;;;;;5.67;1.97;;;9.10;99.90;;;;;;5135642;27;20831;-70
2024/01/05 01:46:15;;;;;;;10.07;2.30;;;9.10;99.90;;;;;;5137263;27;20512;-70
2024/01/05 01:48:44;;;;;;;12.03;2.03;;;9.20;99.90;;;;;;5137401;27;20477;-70
2024/01/05 01:51:11;;;;;;;8.00;2.60;;;9.20;99.90;;;;;;5137077;27;20466;-69
2024/01/05 01:53:39;;;;;;;7.20;2.23;;;9.20;99.90;;;;;;5136724;27;20445;-70
2024/01/05 01:56:10;;;;;;;4.80;2.00;;;9.20;99.90;;;;;;5136635;27;20528;-70
2024/01/05 01:58:37;;;;;;;7.40;2.60;;;9.20;99.90;;;;;;5137045;27;20479;-70
2024/01/05 02:01:05;;;;;;;12.80;2.80;;;9.20;99.90;;;;;;5136837;27;20482;-69
2024/01/05 02:03:33;;;;;;;7.30;1.70;;;9.20;99.90;;;;;;5136954;27;20449;-70
2024/01/05 02:06:01;;;;;;;10.40;1.90;;;9.30;99.90;;;;;;5118585;27;20446;-69
2024/01/05 02:08:28;;;;;;;13.23;3.80;;;9.30;99.90;;;;;;5136970;27;20441;-70
2024/01/05 02:10:55;;;;;;;8.63;2.00;;;9.30;99.90;;;;;;5118584;27;20481;-69
2024/01/05 02:13:21;;;;;;;5.33;1.40;;;9.30;99.90;;;;;;5136487;27;20965;-70
2024/01/05 02:15:48;;;;;;;18.00;3.63;;;9.30;99.90;;;;;;5136713;27;20833;-70
2024/01/05 02:18:16;;;;;;;4.50;1.80;;;9.30;99.90;;;;;;5137212;27;20949;-70
2024/01/05 02:20:46;;;;;;;5.77;1.77;;;9.30;99.90;;;;;;5136377;27;20990;-70
2024/01/05 02:23:21;;;;;;;8.53;2.63;;;9.30;99.90;;;;;;5137021;27;20422;-70
2024/01/05 02:25:48;;;;;;;6.17;1.70;;;9.30;99.90;;;;;;5136856;27;20429;-70
2024/01/05 02:28:15;;;;;;;6.40;1.80;;;9.40;99.90;;;;;;5137524;27;20446;-70
2024/01/05 02:30:42;;;;;;;5.83;1.40;;;9.40;99.90;;;;;;5136337;27;20450;-69
2024/01/05 02:33:09;;;;;;;4.63;1.60;;;9.40;99.90;;;;;;5136454;27;20639;-70
2024/01/05 02:35:35;;;;;;;4.17;1.60;;;9.40;99.90;;;;;;5136112;27;20452;-70
2024/01/05 02:38:02;;;;;;;5.53;1.60;;;9.40;99.90;;;;;;5147356;27;20466;-70
2024/01/05 02:40:30;;;;;;;7.80;2.17;;;9.30;99.90;;;;;;5140025;27;20482;-69
2024/01/05 02:42:57;;;;;;;6.57;1.60;;;9.30;99.90;;;;;;5138430;27;20444;-70
2024/01/05 02:45:24;;;;;;;8.50;1.87;;;9.30;99.90;;;;;;5137480;27;20491;-69
2024/01/05 02:47:51;;;;;;;11.03;2.27;;;9.30;99.90;;;;;;5136852;27;20438;-70
2024/01/05 02:50:18;;;;;;;7.13;2.80;;;9.30;99.90;;;;;;5136875;27;20462;-69
2024/01/05 02:52:45;;;;;;;5.60;2.30;;;9.20;99.90;;;;;;5118211;27;20954;-70
2024/01/05 02:55:13;;;;;;;8.00;2.00;;;9.20;99.90;;;;;;5117870;27;20437;-69
2024/01/05 02:57:41;;;;;;;5.30;1.73;;;9.30;99.90;;;;;;5136207;27;20946;-70
2024/01/05 03:00:09;;;;;;;7.40;1.90;;;9.30;99.90;;;;;;5136255;27;20478;-69
2024/01/05 03:02:36;;;;;;;6.83;1.93;;;9.30;99.90;;;;;;5136029;27;20441;-70
2024/01/05 03:05:04;;;;;;;4.10;1.67;;;9.30;99.90;;;;;;5136071;27;20469;-70
2024/01/05 03:07:31;;;;;;;3.17;1.40;;;9.30;99.90;;;;;;5136064;27;20441;-70
2024/01/05 03:09:57;;;;;;;5.73;1.40;;;9.30;99.90;;;;;;5135785;27;20462;-69
2024/01/05 03:12:24;;;;;;;5.83;2.77;;;9.30;99.90;;;;;;5135901;27;20445;-70
2024/01/05 03:14:52;;;;;;;5.50;1.37;;;9.20;99.90;;;;;;5118172;27;20441;-70
2024/01/05 03:17:19;;;;;;;6.20;1.80;;;9.20;99.90;;;;;;5135649;27;20442;-70
2024/01/05 03:19:46;;;;;;;6.67;1.50;;;9.10;99.90;;;;;;5135397;27;20503;-70
2024/01/05 03:22:12;;;;;;;6.00;1.73;;;9.10;99.90;;;;;;5135708;27;20438;-70
2024/01/05 03:24:40;;;;;;;8.63;2.40;;;9.10;99.90;;;;;;5135969;27;20441;-70
2024/01/05 03:27:08;;;;;;;9.93;2.70;;;9.10;99.90;;;;;;5135887;27;20448;-70
2024/01/05 03:29:35;;;;;;;9.43;1.67;;;9.10;99.90;;;;;;5135276;27;20461;-69
2024/01/05 03:32:03;;;;;;;5.07;1.60;;;9.10;99.90;;;;;;5135090;27;20445;-70
2024/01/05 03:34:30;;;;;;;8.20;1.97;;;9.00;99.90;;;;;;5135171;27;20441;-70
2024/01/05 03:36:57;;;;;;;7.37;1.80;;;9.00;99.90;;;;;;5135300;27;20473;-70
2024/01/05 03:39:24;;;;;;;5.13;2.20;;;9.00;99.90;;;;;;5135086;27;20461;-69
2024/01/05 03:41:51;;;;;;;4.40;1.33;;;9.00;99.90;;;;;;5135266;27;20438;-70
2024/01/05 03:44:20;;;;;;;7.57;1.90;;;9.00;99.90;;;;;;5135136;27;20446;-69
2024/01/05 03:46:47;;;;;;;5.60;2.20;;;9.00;99.90;;;;;;5135103;27;20473;-70
2024/01/05 03:49:16;;;;;;;5.30;1.87;;;9.00;99.90;;;;;;5134866;27;20524;-69
2024/01/05 03:51:43;;;;;;;12.50;1.90;;;9.00;99.90;;;;;;5134887;27;20442;-69
2024/01/05 03:54:10;;;;;;;5.70;1.90;;;9.00;99.90;;;;;;5134876;27;20442;-70
2024/01/05 03:56:41;;;;;;;5.90;2.13;;;9.00;99.90;;;;;;5134692;27;20450;-70
2024/01/05 03:59:08;;;;;;;7.63;1.80;;;9.00;99.90;;;;;;5134709;27;20498;-70
2024/01/05 04:01:34;;;;;;;6.90;1.37;;;9.10;99.90;;;;;;5134730;27;20481;-70
2024/01/05 04:04:01;;;;;;;6.47;1.60;;;9.10;99.90;;;;;;5134782;27;20434;-70
2024/01/05 04:06:29;;;;;;;5.77;1.60;;;9.10;99.90;;;;;;5135528;27;20545;-70
2024/01/05 04:08:56;;;;;;;4.53;1.50;;;9.10;99.90;;;;;;5134976;27;20434;-69
2024/01/05 04:11:25;;;;;;;8.53;1.80;;;9.10;99.90;;;;;;5134444;27;20437;-70
2024/01/05 04:13:52;;;;;;;5.40;2.30;;;9.10;99.90;;;;;;5134262;27;20931;-70
2024/01/05 04:16:19;;;;;;;6.03;1.57;;;9.20;99.90;;;;;;5116348;27;20449;-70
2024/01/05 04:18:46;;;;;;;2.83;1.60;;;9.20;99.90;;;;;;5134586;27;20441;-70
2024/01/05 04:21:13;;;;;;;13.33;2.57;;;9.30;99.90;;;;;;5134151;27;20482;-70
2024/01/05 04:23:42;;;;;;;5.80;1.60;;;9.30;99.90;;;;;;5134477;28;20449;-69
2024/01/05 04:26:09;;;;;;;5.30;1.50;;;9.30;99.90;;;;;;5134606;28;20445;-70
2024/01/05 04:28:36;;;;;;;8.13;1.90;;;9.30;99.90;;;;;;5134302;28;20438;-70
2024/01/05 04:31:03;;;;;;;5.53;1.80;;;9.30;99.90;;;;;;5134503;28;20480;-70
2024/01/05 04:33:30;;;;;;;7.10;1.90;;;9.30;99.90;;;;;;5135096;28;20484;-70
2024/01/05 04:35:56;;;;;;;7.10;1.70;;;9.30;99.90;;;;;;5134402;28;20504;-70
2024/01/05 04:38:23;;;;;;;7.17;1.70;;;9.30;99.90;;;;;;5134326;28;20450;-70
2024/01/05 04:40:51;;;;;;;6.80;1.43;;;9.30;99.90;;;;;;5134496;28;20481;-70
2024/01/05 04:43:18;;;;;;;4.30;1.43;;;9.40;99.90;;;;;;5134367;28;20446;-70
2024/01/05 04:45:45;;;;;;;5.83;1.90;;;9.40;99.90;;;;;;5134081;28;20442;-70
2024/01/05 04:48:12;;;;;;;5.60;1.70;;;9.40;99.90;;;;;;5134004;28;20840;-70
2024/01/05 04:50:39;;;;;;;5.83;1.97;;;9.40;99.90;;;;;;5133818;28;20458;-70
2024/01/05 04:53:06;;;;;;;6.33;1.97;;;9.50;99.90;;;;;;5134966;28;20907;-70
2024/01/05 04:55:33;;;;;;;3.33;1.77;;;9.40;99.90;;;;;;5139100;28;20505;-70
2024/01/05 04:58:01;;;;;;;4.90;1.63;;;9.50;99.90;;;;;;5144527;28;20426;-70
2024/01/05 05:00:28;;;;;;;3.97;1.57;;;9.50;99.90;;;;;;5137459;28;20831;-70
2024/01/05 05:02:56;;;;;;;5.40;1.57;;;9.50;99.90;;;;;;5135819;28;20434;-70
2024/01/05 05:05:25;;;;;;;4.90;1.57;;;9.50;99.90;;;;;;5135064;28;20502;-70
2024/01/05 05:07:52;;;;;;;6.23;1.73;;;9.60;99.90;;;;;;5134590;28;20444;-70
2024/01/05 05:10:21;;;;;;;2.03;1.60;;;9.60;99.90;;;;;;5134554;28;20465;-70
2024/01/05 05:12:48;;;;;;;4.50;2.27;;;9.60;99.90;;;;;;5135213;28;20442;-70
2024/01/05 05:15:17;;;;;;;6.57;1.70;;;9.60;99.90;;;;;;5141915;28;20445;-70
2024/01/05 05:17:44;;;;;;;13.23;2.20;;;9.60;99.90;;;;;;5143625;27;20467;-71
2024/01/05 05:20:12;;;;;;;4.17;1.50;;;9.50;99.90;;;;;;5145867;27;20468;-70
2024/01/05 05:22:39;;;;;;;5.53;1.50;;;9.40;99.90;;;;;;5146015;27;20977;-70
2024/01/05 05:25:07;;;;;;;4.90;2.07;;;9.40;99.90;;;;;;5144303;27;20450;-70
2024/01/05 05:27:33;;;;;;;3.00;1.57;;;9.40;99.90;;;;;;5141992;27;20433;-71
2024/01/05 05:30:00;;;;;;;6.60;1.70;;;9.40;99.90;;;;;;5141114;27;20466;-70
2024/01/05 05:32:29;;;;;;;5.43;1.47;;;9.40;99.90;;;;;;5140776;27;20504;-70
2024/01/05 05:34:55;;;;;;;7.93;1.50;;;9.40;99.90;;;;;;5141532;27;20442;-71
2024/01/05 05:37:22;;;;;;;4.37;1.50;;;9.40;99.90;;;;;;5141234;27;20950;-70
2024/01/05 05:39:49;;;;;;;4.87;1.40;;;9.40;99.90;;;;;;5140743;27;20462;-70
2024/01/05 05:42:16;;;;;;;4.87;2.30;;;9.30;99.90;;;;;;5139736;27;20509;-70
2024/01/05 05:44:42;;;;;;;5.50;1.40;;;9.30;99.90;;;;;;5139591;27;20840;-71
2024/01/05 05:47:10;;;;;;;3.40;1.30;;;9.30;99.90;;;;;;5120971;27;20442;-71
2024/01/05 05:49:38;;;;;;;4.13;1.47;;;9.40;99.90;;;;;;5138615;27;20465;-70
2024/01/05 05:52:05;;;;;;;4.07;1.37;;;9.30;99.90;;;;;;5139442;27;20935;-71
2024/01/05 05:54:32;;;;;;;5.23;1.37;;;9.40;99.90;;;;;;5138642;27;20494;-70
2024/01/05 05:56:59;;;;;;;3.13;1.30;;;9.40;99.90;;;;;;5120148;27;20500;-70
2024/01/05 05:59:27;;;;;;;5.37;1.13;;;9.40;99.90;;;;;;5138245;27;20465;-70
2024/01/05 06:01:54;;;;;;;3.40;1.27;;;9.30;99.90;;;;;;5137805;27;20531;-70
2024/01/05 06:04:21;;;;;;;4.10;1.03;;;9.30;99.90;;;;;;5120401;27;20927;-70
2024/01/05 06:06:49;;;;;;;5.33;1.30;;;9.40;99.90;;;;;;5138061;27;20444;-70
2024/01/05 06:09:16;;;;;;;3.83;1.27;;;9.40;99.90;;;;;;5138244;27;20440;-70
2024/01/05 06:11:43;;;;;;;1.73;1.13;;;9.30;99.90;;;;;;5119258;27;20838;-70
2024/01/05 06:14:10;;;;;;;4.03;1.50;;;9.30;99.90;;;;;;5137167;27;20446;-70
2024/01/05 06:16:36;;;;;;;3.33;1.20;;;9.30;99.90;;;;;;5119321;27;20449;-70
2024/01/05 06:19:03;;;;;;;2.00;1.10;;;9.30;99.90;;;;;;5137609;27;20438;-70
2024/01/05 06:21:30;;;;;;;2.10;1.47;;;9.40;99.90;;;;;;5136676;27;20569;-71
2024/01/05 06:23:59;;;;;;;2.60;1.40;;;9.40;99.90;;;;;;5119210;27;20442;-70
2024/01/05 06:26:26;;;;;;;5.83;1.27;;;9.40;99.90;;;;;;5137240;27;20442;-71
2024/01/05 06:28:53;;;;;;;5.20;1.10;;;9.40;99.90;;;;;;5137088;27;20438;-70
2024/01/05 06:31:20;;;;;;;2.73;1.10;;;9.40;99.90;;;;;;5135663;27;20465;-70
2024/01/05 06:33:47;;;;;;;6.07;1.40;;;9.50;99.90;;;;;;5136314;27;20438;-70
2024/01/05 06:36:13;;;;;;;4.27;1.03;;;9.50;99.90;;;;;;5136801;27;20446;-70
2024/01/05 06:38:40;;;;;;;3.40;1.00;;;9.60;99.90;;;;;;5136363;27;20442;-70
2024/01/05 06:41:08;;;;;;;3.80;1.10;;;9.60;99.90;;;;;;5136533;27;20512;-70
2024/01/05 06:43:35;;;;;;;3.37;1.10;;;9.70;99.90;;;;;;5140059;27;20445;-71
2024/01/05 06:46:02;;;;;;;5.47;1.27;;;9.70;99.90;;;;;;5119335;27;20434;-71
2024/01/05 06:48:28;;;;;;;3.80;1.13;;;9.70;99.90;;;;;;5138036;27;20442;-72
2024/01/05 06:50:55;;;;;;;2.40;1.10;;;9.80;99.90;;;;;;5118460;27;20457;-71
2024/01/05 06:53:22;;;;;;;5.03;1.17;;;9.80;99.90;;;;;;5136335;27;20442;-71
2024/01/05 06:55:49;;;;;;;2.83;1.20;;;9.80;99.90;;;;;;5135988;27;20453;-71
2024/01/05 06:58:17;;;;;;;2.10;1.50;;;9.90;99.90;;;;;;5136433;27;20446;-71
2024/01/05 07:00:44;;;;;;;4.80;1.20;;;9.90;99.90;;;;;;5117497;27;20472;-71
2024/01/05 07:03:11;;;;;;;3.80;1.10;;;9.90;99.90;;;;;;5136295;27;20438;-71
2024/01/05 07:05:38;;;;;;;7.10;1.27;;;9.90;99.90;;;;;;5136105;27;20468;-72
2024/01/05 07:08:07;;;;;;;3.87;1.07;;;9.90;99.90;;;;;;5136076;27;20449;-71
2024/01/05 07:10:34;;;;;;;2.60;1.03;;;9.90;99.90;;;;;;5143086;27;20454;-72
2024/01/05 07:13:01;;;;;;;1.63;0.93;;;9.90;99.90;;;;;;5146100;27;20442;-71
2024/01/05 07:15:30;;;;;;;3.03;1.20;;;10.00;99.90;;;;;;5139455;27;20445;-72
2024/01/05 07:17:56;;;;;;;1.90;0.57;;;10.00;99.90;;;;;;5137964;27;20476;-71
2024/01/05 07:20:23;;;;;;;2.37;0.93;;;10.00;99.90;;;;;;5136441;27;20469;-72
2024/01/05 07:22:50;;;;;;;2.20;0.93;;;10.00;99.90;;;;;;5136828;27;20484;-72
2024/01/05 07:25:17;;;;;;;1.93;0.90;;;10.00;99.90;;;;;;5136170;27;20438;-71
2024/01/05 07:27:43;;;;;;;4.10;0.80;;;10.00;99.90;;;;;;5136052;27;20453;-71
2024/01/05 07:30:11;;;;;;;1.33;0.67;;;9.90;99.90;;;;;;5136102;27;20458;-71
2024/01/05 07:32:40;;;;;;;5.07;1.30;;;9.90;99.90;;;;;;5135550;27;20503;-71
2024/01/05 07:35:10;;;;;;;4.13;1.10;;;9.90;99.90;;;;;;5135736;27;20442;-71
2024/01/05 07:37:38;;;;;;;2.87;1.07;;;9.90;99.90;;;;;;5136126;27;20465;-71
2024/01/05 07:40:06;;;;;;;3.63;0.80;;;9.90;99.90;;;;;;5135329;27;20511;-71
2024/01/05 07:42:33;;;;;;;5.97;1.60;;;9.90;99.90;;;;;;5135309;27;20523;-71
2024/01/05 07:45:00;;;;;;;2.37;0.77;;;9.90;99.90;;;;;;5135616;27;20468;-71
2024/01/05 07:47:27;;;;;;;5.80;1.07;;;9.90;99.90;;;;;;5135522;27;20438;-71
2024/01/05 07:49:55;;;;;;;3.70;1.80;;;9.90;99.90;;;;;;5135208;27;20462;-72
2024/01/05 07:52:22;;;;;;;4.70;1.13;;;9.90;99.90;;;;;;5135521;27;20438;-71
2024/01/05 07:54:48;;;;;;;8.73;0.97;;;9.90;99.90;;;;;;5135377;27;20449;-71
2024/01/05 07:57:15;;;;;;;7.40;0.80;;;9.90;99.90;;;;;;5135368;27;20544;-71
2024/01/05 07:59:42;;;;;;;4.90;1.00;;;9.90;99.90;;;;;;5134942;27;20959;-71
2024/01/05 08:02:11;;;;;;;1.80;0.80;;;9.90;99.90;;;;;;5134854;27;21006;-71
2024/01/05 08:04:37;;;;;;;4.57;0.80;;;9.90;99.90;;;;;;5135335;27;20446;-71
2024/01/05 08:07:06;;;;;;;2.43;0.80;;;9.90;99.90;;;;;;5134762;27;20446;-71
2024/01/05 08:09:33;;;;;;;4.93;1.10;;;10.00;99.90;;;;;;5134929;27;20493;-71
2024/01/05 08:12:00;;;;;;;2.50;0.60;;;9.90;99.90;;;;;;5135354;27;20441;-71
2024/01/05 08:14:27;;;;;;;3.37;0.87;;;9.90;99.90;;;;;;5116879;27;20441;-71
2024/01/05 08:16:54;;;;;;;0.70;0.50;;;10.00;99.90;;;;;;5116856;28;20450;-71
2024/01/05 08:19:21;;;;;;;1.77;0.50;;;10.00;99.90;;;;;;5134760;27;20460;-71
2024/01/05 08:21:48;;;;;;;8.43;0.87;;;10.00;99.90;;;;;;5134822;27;20481;-71
2024/01/05 08:24:16;;;;;;;2.23;0.50;;;10.10;99.90;;;;;;5134896;28;20442;-71
2024/01/05 08:26:44;;;;;;;2.90;0.60;;;10.00;99.80;;;;;;5134791;28;20481;-71
2024/01/05 08:29:11;;;;;;;6.03;0.80;;;10.10;99.90;;;;;;5134608;28;20450;-71
2024/01/05 08:31:39;;;;;;;1.40;0.50;;;10.10;99.90;;;;;;5134931;28;20441;-72
2024/01/05 08:34:06;;;;;;;2.30;0.60;;;10.10;99.90;;;;;;5134666;28;20455;-71
2024/01/05 08:36:34;;;;;;;1.67;0.50;;;10.00;99.60;;;;;;5134933;28;20484;-71
2024/01/05 08:39:00;;;;;;;0.47;0.47;;;10.00;99.40;;;;;;5117025;28;20445;-71
2024/01/05 08:41:29;;;;;;;1.93;0.63;;;9.90;99.40;;;;;;5134603;28;20481;-71
2024/01/05 08:43:56;;;;;;;0.80;0.73;;;10.00;99.60;;;;;;5134588;28;20442;-71
2024/01/05 08:46:22;;;;;;;2.73;0.80;;;10.00;99.60;;;;;;5135479;28;20445;-71
2024/01/05 08:48:49;;;;;;;3.03;0.63;;;10.00;99.40;;;;;;5134490;28;20453;-71
2024/01/05 08:51:16;;;;;;;0.97;0.40;;;9.90;99.90;;;;;;5135077;28;20469;-70
2024/01/05 08:53:43;;;;;;;1.93;0.40;;;10.00;99.50;;;;;;5136530;27;20437;-71
2024/01/05 08:56:10;;;;;;;1.83;0.90;;;10.00;99.40;;;;;;5138671;27;20485;-72
2024/01/05 08:58:39;;;;;;;1.30;0.40;;;9.90;99.40;;;;;;5139062;27;20446;-71
2024/01/05 09:01:05;;;;;;;1.03;0.60;;;9.90;98.10;;;;;;5138575;27;20553;-71
2024/01/05 09:03:32;;;;;;;0.43;0.40;;;9.80;98.00;;;;;;5138814;27;20442;-71
2024/01/05 09:05:59;;;;;;;0.50;0.30;;;9.90;98.10;;;;;;5138404;27;20532;-71
2024/01/05 09:08:26;;;;;;;0.80;0.40;;;10.00;97.60;;;;;;5120840;27;20453;-71
2024/01/05 09:10:53;;;;;;;1.00;0.60;;;10.00;97.40;;;;;;5138943;27;20473;-71
2024/01/05 09:13:20;;;;;;;0.80;0.50;;;10.10;97.50;;;;;;5138843;27;20498;-71
2024/01/05 09:15:48;;;;;;;0.40;0.40;;;10.10;97.70;;;;;;5120360;27;20855;-71
2024/01/05 09:18:15;;;;;;;1.73;0.70;;;10.20;96.60;;;;;;5137870;27;20442;-71
2024/01/05 09:20:42;;;;;;;1.00;0.57;;;10.10;96.30;;;;;;5145035;27;20457;-71
2024/01/05 09:23:08;;;;;;;1.37;0.40;;;10.00;95.80;;;;;;5145195;27;20477;-71
2024/01/05 09:25:37;;;;;;;0.80;0.50;;;10.10;96.30;;;;;;5142331;27;20441;-71
2024/01/05 09:28:06;;;;;;;2.00;0.73;;;10.10;96.00;;;;;;5141193;27;20442;-71
2024/01/05 09:30:33;;;;;;;0.80;0.37;;;10.20;96.20;;;;;;5139650;27;20461;-71
2024/01/05 09:33:03;;;;;;;0.90;0.50;;;10.10;96.00;;;;;;5121171;27;20478;-71
2024/01/05 09:35:30;;;;;;;0.70;0.40;;;10.10;96.00;;;;;;5139607;27;20465;-71
2024/01/05 09:37:57;;;;;;;0.60;0.43;;;10.10;95.90;;;;;;5120774;27;20444;-71
2024/01/05 09:40:25;;;;;;;1.13;0.40;;;10.10;96.30;;;;;;5139231;27;20474;-71
2024/01/05 09:42:54;;;;;;;1.23;0.50;;;10.10;96.30;;;;;;5138753;27;20482;-71
2024/01/05 09:45:23;;;;;;;0.73;0.40;;;10.10;95.80;;;;;;5139666;27;20450;-71
2024/01/05 09:47:51;;;;;;;1.70;0.50;;;10.00;95.50;;;;;;5137939;27;20943;-71
2024/01/05 09:50:19;;;;;;;1.77;0.40;;;10.00;95.20;;;;;;5139648;27;20458;-71
2024/01/05 09:52:46;;;;;;;1.07;0.33;;;10.00;96.10;;;;;;5139242;27;20446;-71
2024/01/05 09:55:13;;;;;;;1.23;0.40;;;10.10;96.20;;;;;;5139001;27;20448;-71
2024/01/05 09:57:42;;;;;;;0.60;0.40;;;10.10;95.90;;;;;;5120667;27;20457;-71
2024/01/05 10:00:12;;;;;;;2.27;0.40;;;10.20;95.90;;;;;;5104627;27;20458;-71
2024/01/05 10:02:43;;;;;;;0.60;0.50;;;10.20;95.50;;;;;;5139600;27;20462;-71
2024/01/05 10:05:13;;;;;;;0.70;0.50;;;10.30;95.70;;;;;;5119551;27;20454;-72
2024/01/05 10:07:52;;;;;;;0.70;0.47;;;10.40;95.30;;;;;;5139093;27;20434;-71
2024/01/05 10:10:19;;;;;;;1.50;0.60;;;10.30;95.60;;;;;;5139551;27;20501;-72
2024/01/05 10:12:47;;;;;;;3.80;0.50;;;10.50;96.30;;;;;;5138459;27;20434;-71
2024/01/05 10:15:14;;;;;;;1.33;0.53;;;10.50;95.30;;;;;;5137605;27;20437;-72
2024/01/05 10:17:41;;;;;;;1.37;0.57;;;10.60;95.10;;;;;;5137785;27;20494;-71
2024/01/05 10:20:16;;;;;;;1.67;0.60;;;10.40;94.70;;;;;;5136960;27;20983;-71
2024/01/05 10:22:46;;;;;;;1.17;0.50;;;10.40;95.40;;;;;;5137723;27;20482;-71
2024/01/05 10:25:17;;;;;;;4.00;0.60;;;10.30;95.20;;;;;;5137923;27;20446;-70
2024/01/05 10:27:44;;;;;;;2.10;0.50;;;10.20;96.10;;;;;;5137540;27;20964;-71
2024/01/05 10:30:24;;;;;;;1.40;0.50;;;10.20;96.00;;;;;;5137544;27;20511;-71
2024/01/05 10:33:03;;;;;;;1.37;0.50;;;10.10;95.50;;;;;;5137980;27;20810;-70
2024/01/05 10:35:30;;;;;;;0.80;0.40;;;10.00;96.00;;;;;;5140350;27;20899;-71
2024/01/05 10:38:05;;;;;;;3.27;0.60;;;10.00;95.90;;;;;;5140528;27;20438;-71
2024/01/05 10:40:33;;;;;;;3.60;0.70;;;9.90;96.70;;;;;;5140310;27;20462;-71
2024/01/05 10:43:08;;;;;;;2.10;0.50;;;9.90;96.50;;;;;;5121769;27;20867;-71
2024/01/05 10:45:37;;;;;;;0.67;0.67;;;9.90;96.50;;;;;;5141229;27;20433;-71
2024/01/05 10:48:05;;;;;;;2.33;0.90;;;9.90;96.60;;;;;;5138434;27;20453;-71
2024/01/05 10:50:37;;;;;;;1.93;0.73;;;9.80;96.70;;;;;;5136578;27;20462;-71
2024/01/05 10:53:08;;;;;;;1.60;0.70;;;9.90;96.60;;;;;;5137409;27;20418;-71
2024/01/05 10:55:37;;;;;;;2.67;0.80;;;9.90;96.40;;;;;;5137245;27;20525;-71
2024/01/05 10:58:05;;;;;;;2.10;0.60;;;9.90;96.00;;;;;;5118607;27;20806;-71
2024/01/05 11:00:32;;;;;;;1.27;0.50;;;9.80;96.10;;;;;;5136325;27;20510;-71
2024/01/05 11:03:09;;;;;;;1.20;0.40;;;9.80;96.50;;;;;;5136359;27;20885;-71
2024/01/05 11:05:42;;;;;;;2.20;0.63;;;9.80;96.60;;;;;;5136727;27;20429;-71
2024/01/05 11:08:22;;;;;;;2.13;0.50;;;9.80;96.20;;;;;;5117970;27;20540;-72
2024/01/05 11:11:01;;;;;;;1.47;0.50;;;9.80;97.10;;;;;;5136396;27;20477;-71
2024/01/05 11:14:22;;;;;;;2.17;0.83;;;9.80;96.10;;;;;;5137143;27;20418;-71
2024/01/05 11:17:07;;;;;;;1.70;0.90;;;9.90;96.40;;;;;;5103305;27;20454;-71
2024/01/05 11:19:55;;;;;;;7.37;0.70;;;9.90;96.00;;;;;;5136920;27;20488;-71
2024/01/05 11:22:25;;;;;;;1.50;0.73;;;9.90;96.40;;;;;;5136232;27;20458;-71
2024/01/05 11:24:55;;;;;;;1.37;0.80;;;10.00;95.90;;;;;;5135578;27;20519;-71
2024/01/05 11:27:28;;;;;;;3.17;0.80;;;10.00;95.90;;;;;;5135478;27;20538;-71
2024/01/05 11:29:56;;;;;;;0.70;0.50;;;9.90;96.10;;;;;;5135289;27;20496;-71
2024/01/05 11:32:37;;;;;;;0.90;0.60;;;10.00;95.40;;;;;;5136134;27;20438;-71
2024/01/05 11:35:25;;;;;;;2.27;0.57;;;10.00;95.70;;;;;;5148322;27;20461;-71
2024/01/05 11:37:52;;;;;;;2.70;0.83;;;10.00;95.70;;;;;;5138110;27;20837;-72
2024/01/05 11:40:29;;;;;;;3.00;0.73;;;10.00;95.70;;;;;;5136553;27;20494;-71
2024/01/05 11:42:57;;;;;;;2.83;0.60;;;10.10;95.70;;;;;;5136224;27;20466;-71
2024/01/05 11:45:48;;;;;;;2.27;0.83;;;10.10;95.90;;;;;;5135931;27;20851;-71
2024/01/05 11:48:46;;;;;;;3.07;0.87;;;10.20;95.80;;;;;;5135673;27;20517;-71
2024/01/05 11:51:14;;;;;;;5.70;1.47;;;10.10;95.00;;;;;;5135811;27;20481;-71
2024/01/05 11:53:41;;;;;;;1.90;0.70;;;10.10;95.40;;;;;;5134981;27;20442;-71
2024/01/05 11:56:10;;;;;;;2.10;0.90;;;10.10;95.50;;;;;;5134973;27;20441;-71
2024/01/05 11:58:39;;;;;;;2.33;0.73;;;10.00;95.80;;;;;;5136190;27;20481;-71
2024/01/05 12:01:09;;;;;;;2.20;0.80;;;10.00;96.20;;;;;;5139914;27;20453;-71
2024/01/05 12:03:38;;;;;;;4.00;1.23;;;10.00;96.80;;;;;;5135339;27;20476;-71
2024/01/05 12:06:06;;;;;;;2.97;0.77;;;10.00;97.00;;;;;;5135326;27;20529;-71
2024/01/05 12:08:33;;;;;;;1.70;0.60;;;10.00;97.00;;;;;;5134984;27;20438;-71
2024/01/05 12:11:02;;;;;;;2.00;0.77;;;9.90;97.70;;;;;;5134914;27;20470;-70
2024/01/05 12:13:33;;;;;;;2.53;0.90;;;10.00;97.40;;;;;;5117040;27;20814;-71
2024/01/05 12:16:02;;;;;;;6.10;1.10;;;10.10;97.50;;;;;;5134263;27;20922;-71
2024/01/05 12:18:30;;;;;;;2.20;0.87;;;10.10;97.60;;;;;;5134768;27;20491;-71
2024/01/05 12:20:58;;;;;;;1.90;0.63;;;10.10;97.80;;;;;;5134666;27;20458;-71
2024/01/05 12:23:25;;;;;;;3.77;0.80;;;10.00;97.70;;;;;;5134453;27;20484;-71
2024/01/05 12:26:03;;;;;;;2.90;0.83;;;10.00;97.80;;;;;;5134460;28;20946;-73
2024/01/05 12:28:33;;;;;;;2.93;0.83;;;10.00;97.40;;;;;;5130589;27;20445;-73
2024/01/05 12:31:00;;;;;;;2.93;0.90;;;9.90;98.20;;;;;;5134081;28;20466;-75
2024/01/05 12:33:28;;;;;;;2.47;0.80;;;10.00;98.10;;;;;;5117165;28;20451;-71
2024/01/05 12:35:55;;;;;;;1.13;0.70;;;10.00;98.40;;;;;;5138827;28;20446;-71
2024/01/05 12:38:24;;;;;;;5.40;1.23;;;10.00;97.90;;;;;;5143568;28;20442;-71
2024/01/05 12:40:52;;;;;;;1.07;0.80;;;10.00;98.20;;;;;;5123594;28;20474;-71
2024/01/05 12:43:19;;;;;;;2.80;1.23;;;10.00;98.60;;;;;;5141849;28;20524;-72
2024/01/05 12:45:49;;;;;;;4.43;1.87;;;10.00;98.40;;;;;;5141101;28;20471;-71
2024/01/05 12:48:17;;;;;;;4.40;1.30;;;10.00;98.40;;;;;;5139972;28;20422;-72
2024/01/05 12:50:44;;;;;;;5.80;1.00;;;9.90;98.50;;;;;;5120544;28;20477;-71
2024/01/05 12:53:18;;;;;;;13.60;1.17;;;9.90;99.00;;;;;;5139337;28;20438;-71
2024/01/05 12:55:44;;;;;;;6.33;0.93;;;9.90;99.60;;;;;;5136642;28;20446;-71
2024/01/05 12:58:11;;;;;;;2.23;0.70;;;9.80;99.40;;;;;;5137192;28;20444;-71